sensor_id;sensor_type;location;lat;lon;timestamp;P1;durP1;ratioP1;P2;durP2;ratioP2
70838;SDS011;58464;52.298;4.852;2023-07-02T00:00:51;20.13;;;5.45;;
70838;SDS011;58464;52.298;4.852;2023-07-02T00:03:17;20.92;;;6.03;;
70838;SDS011;58464;52.298;4.852;2023-07-02T00:05:43;12.10;;;3.90;;
70838;SDS011;58464;52.298;4.852;2023-07-02T00:08:08;19.50;;;5.80;;
70838;SDS011;58464;52.298;4.852;2023-07-02T00:10:33;22.37;;;6.27;;
70838;SDS011;58464;52.298;4.852;2023-07-02T00:13:01;16.95;;;5.18;;
70838;SDS011;58464;52.298;4.852;2023-07-02T00:15:26;8.38;;;3.65;;
70838;SDS011;58464;52.298;4.852;2023-07-02T00:17:51;18.20;;;5.90;;
70838;SDS011;58464;52.298;4.852;2023-07-02T00:20:17;17.60;;;5.20;;
70838;SDS011;58464;52.298;4.852;2023-07-02T00:22:44;12.55;;;5.00;;
70838;SDS011;58464;52.298;4.852;2023-07-02T00:25:12;17.75;;;4.90;;
70838;SDS011;58464;52.298;4.852;2023-07-02T00:27:39;12.73;;;4.70;;
70838;SDS011;58464;52.298;4.852;2023-07-02T00:30:05;21.55;;;5.97;;
70838;SDS011;58464;52.298;4.852;2023-07-02T00:32:31;16.33;;;5.45;;
70838;SDS011;58464;52.298;4.852;2023-07-02T00:34:56;18.87;;;6.20;;
70838;SDS011;58464;52.298;4.852;2023-07-02T00:37:21;24.23;;;6.20;;
70838;SDS011;58464;52.298;4.852;2023-07-02T00:39:46;15.88;;;4.88;;
70838;SDS011;58464;52.298;4.852;2023-07-02T00:42:12;24.23;;;5.97;;
70838;SDS011;58464;52.298;4.852;2023-07-02T00:44:37;30.27;;;6.65;;
70838;SDS011;58464;52.298;4.852;2023-07-02T00:47:09;24.95;;;6.20;;
70838;SDS011;58464;52.298;4.852;2023-07-02T00:49:34;19.88;;;6.15;;
70838;SDS011;58464;52.298;4.852;2023-07-02T00:51:59;21.42;;;6.10;;
70838;SDS011;58464;52.298;4.852;2023-07-02T00:54:27;16.17;;;6.47;;
70838;SDS011;58464;52.298;4.852;2023-07-02T00:56:53;26.25;;;6.35;;
70838;SDS011;58464;52.298;4.852;2023-07-02T00:59:18;15.03;;;5.60;;
70838;SDS011;58464;52.298;4.852;2023-07-02T01:01:43;31.35;;;7.72;;
70838;SDS011;58464;52.298;4.852;2023-07-02T01:04:16;22.15;;;5.95;;
70838;SDS011;58464;52.298;4.852;2023-07-02T01:06:41;29.90;;;7.13;;
70838;SDS011;58464;52.298;4.852;2023-07-02T01:09:08;23.80;;;7.03;;
70838;SDS011;58464;52.298;4.852;2023-07-02T01:11:44;39.80;;;8.15;;
70838;SDS011;58464;52.298;4.852;2023-07-02T01:16:54;14.40;;;5.87;;
70838;SDS011;58464;52.298;4.852;2023-07-02T01:21:59;22.30;;;6.90;;
70838;SDS011;58464;52.298;4.852;2023-07-02T01:24:24;23.23;;;6.35;;
70838;SDS011;58464;52.298;4.852;2023-07-02T01:26:49;18.33;;;6.57;;
70838;SDS011;58464;52.298;4.852;2023-07-02T01:29:18;24.55;;;6.47;;
70838;SDS011;58464;52.298;4.852;2023-07-02T01:31:44;20.48;;;5.22;;
70838;SDS011;58464;52.298;4.852;2023-07-02T01:34:09;22.55;;;6.10;;
70838;SDS011;58464;52.298;4.852;2023-07-02T01:36:35;31.80;;;5.75;;
70838;SDS011;58464;52.298;4.852;2023-07-02T01:39:01;19.65;;;6.05;;
70838;SDS011;58464;52.298;4.852;2023-07-02T01:41:26;30.38;;;7.88;;
70838;SDS011;58464;52.298;4.852;2023-07-02T01:43:51;26.67;;;5.93;;
70838;SDS011;58464;52.298;4.852;2023-07-02T01:46:17;22.80;;;6.57;;
70838;SDS011;58464;52.298;4.852;2023-07-02T01:48:42;15.43;;;5.83;;
70838;SDS011;58464;52.298;4.852;2023-07-02T01:51:07;24.07;;;6.60;;
70838;SDS011;58464;52.298;4.852;2023-07-02T01:53:32;19.70;;;7.43;;
70838;SDS011;58464;52.298;4.852;2023-07-02T01:55:57;19.33;;;6.63;;
70838;SDS011;58464;52.298;4.852;2023-07-02T01:58:24;21.48;;;6.00;;
70838;SDS011;58464;52.298;4.852;2023-07-02T02:00:49;19.92;;;6.38;;
70838;SDS011;58464;52.298;4.852;2023-07-02T02:03:15;20.13;;;6.20;;
70838;SDS011;58464;52.298;4.852;2023-07-02T02:05:40;21.80;;;6.73;;
70838;SDS011;58464;52.298;4.852;2023-07-02T02:08:05;23.47;;;6.87;;
70838;SDS011;58464;52.298;4.852;2023-07-02T02:10:30;21.53;;;6.67;;
70838;SDS011;58464;52.298;4.852;2023-07-02T02:12:56;29.23;;;7.30;;
70838;SDS011;58464;52.298;4.852;2023-07-02T02:15:21;22.97;;;6.30;;
70838;SDS011;58464;52.298;4.852;2023-07-02T02:17:46;22.02;;;6.38;;
70838;SDS011;58464;52.298;4.852;2023-07-02T02:20:12;21.83;;;6.25;;
70838;SDS011;58464;52.298;4.852;2023-07-02T02:22:37;19.30;;;5.82;;
70838;SDS011;58464;52.298;4.852;2023-07-02T02:25:03;28.77;;;6.65;;
70838;SDS011;58464;52.298;4.852;2023-07-02T02:27:28;24.13;;;6.05;;
70838;SDS011;58464;52.298;4.852;2023-07-02T02:29:54;26.60;;;7.68;;
70838;SDS011;58464;52.298;4.852;2023-07-02T02:32:19;18.30;;;5.80;;
70838;SDS011;58464;52.298;4.852;2023-07-02T02:34:47;26.25;;;7.10;;
70838;SDS011;58464;52.298;4.852;2023-07-02T02:37:12;21.15;;;6.75;;
70838;SDS011;58464;52.298;4.852;2023-07-02T02:39:37;22.05;;;6.50;;
70838;SDS011;58464;52.298;4.852;2023-07-02T02:42:03;18.67;;;6.27;;
70838;SDS011;58464;52.298;4.852;2023-07-02T02:44:28;18.05;;;6.00;;
70838;SDS011;58464;52.298;4.852;2023-07-02T02:46:54;27.58;;;7.35;;
70838;SDS011;58464;52.298;4.852;2023-07-02T02:49:19;27.33;;;7.17;;
70838;SDS011;58464;52.298;4.852;2023-07-02T02:51:45;25.67;;;7.10;;
70838;SDS011;58464;52.298;4.852;2023-07-02T02:54:10;23.00;;;6.15;;
70838;SDS011;58464;52.298;4.852;2023-07-02T02:56:35;21.55;;;6.65;;
70838;SDS011;58464;52.298;4.852;2023-07-02T02:59:00;31.95;;;8.77;;
70838;SDS011;58464;52.298;4.852;2023-07-02T03:01:26;29.35;;;7.82;;
70838;SDS011;58464;52.298;4.852;2023-07-02T03:03:57;23.38;;;5.95;;
70838;SDS011;58464;52.298;4.852;2023-07-02T03:06:23;19.98;;;5.68;;
70838;SDS011;58464;52.298;4.852;2023-07-02T03:08:48;25.35;;;6.85;;
70838;SDS011;58464;52.298;4.852;2023-07-02T03:11:13;24.93;;;6.83;;
70838;SDS011;58464;52.298;4.852;2023-07-02T03:13:39;27.60;;;7.47;;
70838;SDS011;58464;52.298;4.852;2023-07-02T03:16:04;26.70;;;6.47;;
70838;SDS011;58464;52.298;4.852;2023-07-02T03:18:29;21.58;;;5.70;;
70838;SDS011;58464;52.298;4.852;2023-07-02T03:20:55;25.33;;;8.50;;
70838;SDS011;58464;52.298;4.852;2023-07-02T03:23:20;15.90;;;5.30;;
70838;SDS011;58464;52.298;4.852;2023-07-02T03:25:45;22.23;;;6.53;;
70838;SDS011;58464;52.298;4.852;2023-07-02T03:28:11;21.73;;;5.93;;
70838;SDS011;58464;52.298;4.852;2023-07-02T03:30:36;23.85;;;7.22;;
70838;SDS011;58464;52.298;4.852;2023-07-02T03:33:01;24.30;;;7.05;;
70838;SDS011;58464;52.298;4.852;2023-07-02T03:35:26;28.00;;;8.60;;
70838;SDS011;58464;52.298;4.852;2023-07-02T03:37:52;32.03;;;7.00;;
70838;SDS011;58464;52.298;4.852;2023-07-02T03:40:17;26.53;;;7.27;;
70838;SDS011;58464;52.298;4.852;2023-07-02T03:42:43;21.83;;;6.50;;
70838;SDS011;58464;52.298;4.852;2023-07-02T03:45:08;25.48;;;7.13;;
70838;SDS011;58464;52.298;4.852;2023-07-02T03:47:33;23.50;;;5.68;;
70838;SDS011;58464;52.298;4.852;2023-07-02T03:49:58;28.13;;;6.73;;
70838;SDS011;58464;52.298;4.852;2023-07-02T03:52:24;17.73;;;6.20;;
70838;SDS011;58464;52.298;4.852;2023-07-02T03:54:49;19.25;;;6.18;;
70838;SDS011;58464;52.298;4.852;2023-07-02T03:57:14;19.20;;;6.40;;
70838;SDS011;58464;52.298;4.852;2023-07-02T03:59:40;22.83;;;7.05;;
70838;SDS011;58464;52.298;4.852;2023-07-02T04:02:05;28.50;;;6.20;;
70838;SDS011;58464;52.298;4.852;2023-07-02T04:04:30;24.13;;;7.38;;
70838;SDS011;58464;52.298;4.852;2023-07-02T04:06:56;34.05;;;6.10;;
70838;SDS011;58464;52.298;4.852;2023-07-02T04:09:21;24.23;;;6.60;;
70838;SDS011;58464;52.298;4.852;2023-07-02T04:11:46;17.13;;;6.40;;
70838;SDS011;58464;52.298;4.852;2023-07-02T04:14:11;25.38;;;7.05;;
70838;SDS011;58464;52.298;4.852;2023-07-02T04:16:37;26.07;;;7.03;;
70838;SDS011;58464;52.298;4.852;2023-07-02T04:19:02;18.40;;;5.90;;
70838;SDS011;58464;52.298;4.852;2023-07-02T04:21:27;21.73;;;7.10;;
70838;SDS011;58464;52.298;4.852;2023-07-02T04:23:52;30.30;;;5.97;;
70838;SDS011;58464;52.298;4.852;2023-07-02T04:26:18;23.42;;;6.05;;
70838;SDS011;58464;52.298;4.852;2023-07-02T04:28:44;15.83;;;5.40;;
70838;SDS011;58464;52.298;4.852;2023-07-02T04:31:09;23.05;;;6.22;;
70838;SDS011;58464;52.298;4.852;2023-07-02T04:33:35;31.85;;;8.73;;
70838;SDS011;58464;52.298;4.852;2023-07-02T04:36:04;20.15;;;6.03;;
70838;SDS011;58464;52.298;4.852;2023-07-02T04:38:29;21.98;;;6.28;;
70838;SDS011;58464;52.298;4.852;2023-07-02T04:40:54;24.25;;;5.70;;
70838;SDS011;58464;52.298;4.852;2023-07-02T04:43:22;15.75;;;4.93;;
70838;SDS011;58464;52.298;4.852;2023-07-02T04:45:48;25.45;;;6.40;;
70838;SDS011;58464;52.298;4.852;2023-07-02T04:48:14;19.50;;;5.97;;
70838;SDS011;58464;52.298;4.852;2023-07-02T04:50:39;22.63;;;6.50;;
70838;SDS011;58464;52.298;4.852;2023-07-02T04:53:04;17.70;;;5.53;;
70838;SDS011;58464;52.298;4.852;2023-07-02T04:55:29;14.87;;;4.33;;
70838;SDS011;58464;52.298;4.852;2023-07-02T04:57:55;21.13;;;6.17;;
70838;SDS011;58464;52.298;4.852;2023-07-02T05:00:20;22.03;;;5.87;;
70838;SDS011;58464;52.298;4.852;2023-07-02T05:02:47;13.38;;;3.45;;
70838;SDS011;58464;52.298;4.852;2023-07-02T05:05:13;23.50;;;4.93;;
70838;SDS011;58464;52.298;4.852;2023-07-02T05:07:40;27.92;;;5.75;;
70838;SDS011;58464;52.298;4.852;2023-07-02T05:10:05;18.45;;;4.97;;
70838;SDS011;58464;52.298;4.852;2023-07-02T05:12:30;14.98;;;5.57;;
70838;SDS011;58464;52.298;4.852;2023-07-02T05:14:56;21.80;;;5.63;;
70838;SDS011;58464;52.298;4.852;2023-07-02T05:17:21;17.43;;;5.27;;
70838;SDS011;58464;52.298;4.852;2023-07-02T05:19:46;9.35;;;4.30;;
70838;SDS011;58464;52.298;4.852;2023-07-02T05:22:11;15.63;;;5.18;;
70838;SDS011;58464;52.298;4.852;2023-07-02T05:24:37;18.93;;;5.00;;
70838;SDS011;58464;52.298;4.852;2023-07-02T05:27:02;21.83;;;5.63;;
70838;SDS011;58464;52.298;4.852;2023-07-02T05:29:28;14.55;;;4.40;;
70838;SDS011;58464;52.298;4.852;2023-07-02T05:31:53;15.60;;;5.17;;
70838;SDS011;58464;52.298;4.852;2023-07-02T05:34:20;20.27;;;6.53;;
70838;SDS011;58464;52.298;4.852;2023-07-02T05:36:45;16.38;;;4.97;;
70838;SDS011;58464;52.298;4.852;2023-07-02T05:39:10;24.20;;;5.18;;
70838;SDS011;58464;52.298;4.852;2023-07-02T05:41:35;12.80;;;3.90;;
70838;SDS011;58464;52.298;4.852;2023-07-02T05:44:01;19.05;;;6.13;;
70838;SDS011;58464;52.298;4.852;2023-07-02T05:46:26;19.20;;;4.88;;
70838;SDS011;58464;52.298;4.852;2023-07-02T05:48:51;19.40;;;5.00;;
70838;SDS011;58464;52.298;4.852;2023-07-02T05:51:20;25.50;;;6.28;;
70838;SDS011;58464;52.298;4.852;2023-07-02T05:53:45;13.50;;;4.28;;
70838;SDS011;58464;52.298;4.852;2023-07-02T05:56:11;16.10;;;5.00;;
70838;SDS011;58464;52.298;4.852;2023-07-02T05:58:36;18.83;;;4.50;;
70838;SDS011;58464;52.298;4.852;2023-07-02T06:01:01;11.93;;;4.22;;
70838;SDS011;58464;52.298;4.852;2023-07-02T06:03:26;17.30;;;4.55;;
70838;SDS011;58464;52.298;4.852;2023-07-02T06:05:52;16.47;;;4.60;;
70838;SDS011;58464;52.298;4.852;2023-07-02T06:08:17;17.38;;;5.18;;
70838;SDS011;58464;52.298;4.852;2023-07-02T06:10:46;17.73;;;5.07;;
70838;SDS011;58464;52.298;4.852;2023-07-02T06:13:12;11.02;;;3.22;;
70838;SDS011;58464;52.298;4.852;2023-07-02T06:15:38;18.52;;;3.85;;
70838;SDS011;58464;52.298;4.852;2023-07-02T06:18:03;9.23;;;3.65;;
70838;SDS011;58464;52.298;4.852;2023-07-02T06:20:29;19.40;;;4.70;;
70838;SDS011;58464;52.298;4.852;2023-07-02T06:22:54;12.97;;;3.87;;
70838;SDS011;58464;52.298;4.852;2023-07-02T06:25:19;16.23;;;6.20;;
70838;SDS011;58464;52.298;4.852;2023-07-02T06:27:44;29.48;;;7.05;;
70838;SDS011;58464;52.298;4.852;2023-07-02T06:30:10;16.88;;;4.10;;
70838;SDS011;58464;52.298;4.852;2023-07-02T06:32:35;14.15;;;5.15;;
70838;SDS011;58464;52.298;4.852;2023-07-02T06:35:00;16.17;;;4.95;;
70838;SDS011;58464;52.298;4.852;2023-07-02T06:37:26;18.77;;;4.35;;
70838;SDS011;58464;52.298;4.852;2023-07-02T06:39:51;12.68;;;4.90;;
70838;SDS011;58464;52.298;4.852;2023-07-02T06:42:17;12.07;;;3.92;;
70838;SDS011;58464;52.298;4.852;2023-07-02T06:44:42;20.40;;;5.20;;
70838;SDS011;58464;52.298;4.852;2023-07-02T06:47:07;12.40;;;4.10;;
70838;SDS011;58464;52.298;4.852;2023-07-02T06:49:33;17.33;;;4.18;;
70838;SDS011;58464;52.298;4.852;2023-07-02T06:51:58;16.67;;;4.43;;
70838;SDS011;58464;52.298;4.852;2023-07-02T06:54:25;17.73;;;5.07;;
70838;SDS011;58464;52.298;4.852;2023-07-02T06:56:50;12.07;;;3.63;;
70838;SDS011;58464;52.298;4.852;2023-07-02T06:59:22;11.15;;;4.25;;
70838;SDS011;58464;52.298;4.852;2023-07-02T07:01:48;13.77;;;4.00;;
70838;SDS011;58464;52.298;4.852;2023-07-02T07:04:13;17.83;;;4.43;;
70838;SDS011;58464;52.298;4.852;2023-07-02T07:06:39;18.40;;;4.53;;
70838;SDS011;58464;52.298;4.852;2023-07-02T07:09:04;13.63;;;3.70;;
70838;SDS011;58464;52.298;4.852;2023-07-02T07:11:29;9.73;;;3.90;;
70838;SDS011;58464;52.298;4.852;2023-07-02T07:13:54;17.60;;;4.05;;
70838;SDS011;58464;52.298;4.852;2023-07-02T07:16:20;12.15;;;4.07;;
70838;SDS011;58464;52.298;4.852;2023-07-02T07:18:46;20.63;;;4.68;;
70838;SDS011;58464;52.298;4.852;2023-07-02T07:21:12;10.40;;;3.78;;
70838;SDS011;58464;52.298;4.852;2023-07-02T07:23:37;15.40;;;4.57;;
70838;SDS011;58464;52.298;4.852;2023-07-02T07:26:03;15.27;;;4.80;;
70838;SDS011;58464;52.298;4.852;2023-07-02T07:28:28;20.87;;;5.13;;
70838;SDS011;58464;52.298;4.852;2023-07-02T07:30:53;15.70;;;5.67;;
70838;SDS011;58464;52.298;4.852;2023-07-02T07:33:19;12.82;;;3.60;;
70838;SDS011;58464;52.298;4.852;2023-07-02T07:35:44;15.00;;;4.18;;
70838;SDS011;58464;52.298;4.852;2023-07-02T07:38:09;14.63;;;5.18;;
70838;SDS011;58464;52.298;4.852;2023-07-02T07:40:34;14.73;;;5.18;;
70838;SDS011;58464;52.298;4.852;2023-07-02T07:43:00;16.27;;;4.87;;
70838;SDS011;58464;52.298;4.852;2023-07-02T07:45:25;23.97;;;5.37;;
70838;SDS011;58464;52.298;4.852;2023-07-02T07:47:50;19.95;;;5.63;;
70838;SDS011;58464;52.298;4.852;2023-07-02T07:50:15;11.73;;;4.00;;
70838;SDS011;58464;52.298;4.852;2023-07-02T07:52:42;14.00;;;5.60;;
70838;SDS011;58464;52.298;4.852;2023-07-02T07:55:08;17.77;;;4.88;;
70838;SDS011;58464;52.298;4.852;2023-07-02T07:57:34;19.02;;;5.97;;
70838;SDS011;58464;52.298;4.852;2023-07-02T07:59:59;20.42;;;5.28;;
70838;SDS011;58464;52.298;4.852;2023-07-02T08:02:24;12.13;;;4.27;;
70838;SDS011;58464;52.298;4.852;2023-07-02T08:04:50;10.52;;;3.92;;
70838;SDS011;58464;52.298;4.852;2023-07-02T08:07:15;10.27;;;3.80;;
70838;SDS011;58464;52.298;4.852;2023-07-02T08:09:40;16.80;;;3.77;;
70838;SDS011;58464;52.298;4.852;2023-07-02T08:12:06;16.13;;;4.07;;
70838;SDS011;58464;52.298;4.852;2023-07-02T08:14:31;10.02;;;3.40;;
70838;SDS011;58464;52.298;4.852;2023-07-02T08:16:56;13.07;;;4.07;;
70838;SDS011;58464;52.298;4.852;2023-07-02T08:19:21;19.52;;;3.30;;
70838;SDS011;58464;52.298;4.852;2023-07-02T08:21:47;9.25;;;3.45;;
70838;SDS011;58464;52.298;4.852;2023-07-02T08:24:12;14.73;;;3.47;;
70838;SDS011;58464;52.298;4.852;2023-07-02T08:26:38;18.63;;;4.70;;
70838;SDS011;58464;52.298;4.852;2023-07-02T08:29:03;12.57;;;4.70;;
70838;SDS011;58464;52.298;4.852;2023-07-02T08:31:29;15.32;;;3.60;;
70838;SDS011;58464;52.298;4.852;2023-07-02T08:33:54;12.32;;;3.78;;
70838;SDS011;58464;52.298;4.852;2023-07-02T08:36:19;18.20;;;5.03;;
70838;SDS011;58464;52.298;4.852;2023-07-02T08:38:44;11.70;;;3.90;;
70838;SDS011;58464;52.298;4.852;2023-07-02T08:41:10;10.43;;;3.87;;
70838;SDS011;58464;52.298;4.852;2023-07-02T08:43:35;11.65;;;3.88;;
70838;SDS011;58464;52.298;4.852;2023-07-02T08:46:02;11.18;;;4.32;;
70838;SDS011;58464;52.298;4.852;2023-07-02T08:48:29;16.25;;;4.00;;
70838;SDS011;58464;52.298;4.852;2023-07-02T08:50:57;17.25;;;5.07;;
70838;SDS011;58464;52.298;4.852;2023-07-02T08:53:23;12.35;;;4.70;;
70838;SDS011;58464;52.298;4.852;2023-07-02T08:55:55;13.48;;;3.85;;
70838;SDS011;58464;52.298;4.852;2023-07-02T08:58:20;11.50;;;4.63;;
70838;SDS011;58464;52.298;4.852;2023-07-02T09:01:05;10.88;;;3.83;;
70838;SDS011;58464;52.298;4.852;2023-07-02T09:03:33;14.82;;;4.53;;
70838;SDS011;58464;52.298;4.852;2023-07-02T09:05:58;12.73;;;3.95;;
70838;SDS011;58464;52.298;4.852;2023-07-02T09:08:24;19.38;;;4.35;;
70838;SDS011;58464;52.298;4.852;2023-07-02T09:10:50;19.48;;;4.85;;
70838;SDS011;58464;52.298;4.852;2023-07-02T09:13:15;23.20;;;3.42;;
70838;SDS011;58464;52.298;4.852;2023-07-02T09:15:41;11.98;;;3.65;;
70838;SDS011;58464;52.298;4.852;2023-07-02T09:18:16;13.93;;;3.67;;
70838;SDS011;58464;52.298;4.852;2023-07-02T09:20:41;13.20;;;3.30;;
70838;SDS011;58464;52.298;4.852;2023-07-02T09:23:06;12.73;;;4.10;;
70838;SDS011;58464;52.298;4.852;2023-07-02T09:25:36;15.00;;;3.33;;
70838;SDS011;58464;52.298;4.852;2023-07-02T09:28:02;10.85;;;2.58;;
70838;SDS011;58464;52.298;4.852;2023-07-02T09:30:27;7.35;;;2.47;;
70838;SDS011;58464;52.298;4.852;2023-07-02T09:32:53;8.38;;;2.25;;
70838;SDS011;58464;52.298;4.852;2023-07-02T09:35:19;14.35;;;4.00;;
70838;SDS011;58464;52.298;4.852;2023-07-02T09:37:44;12.45;;;4.13;;
70838;SDS011;58464;52.298;4.852;2023-07-02T09:40:10;15.35;;;3.63;;
70838;SDS011;58464;52.298;4.852;2023-07-02T09:42:35;12.52;;;3.40;;
70838;SDS011;58464;52.298;4.852;2023-07-02T09:45:03;9.35;;;3.40;;
70838;SDS011;58464;52.298;4.852;2023-07-02T09:47:32;21.30;;;3.63;;
70838;SDS011;58464;52.298;4.852;2023-07-02T09:50:02;7.35;;;2.30;;
70838;SDS011;58464;52.298;4.852;2023-07-02T09:52:27;11.07;;;3.22;;
70838;SDS011;58464;52.298;4.852;2023-07-02T09:54:53;6.38;;;2.83;;
70838;SDS011;58464;52.298;4.852;2023-07-02T09:57:19;10.85;;;2.83;;
70838;SDS011;58464;52.298;4.852;2023-07-02T09:59:44;11.23;;;3.20;;
70838;SDS011;58464;52.298;4.852;2023-07-02T10:02:11;10.00;;;3.28;;
70838;SDS011;58464;52.298;4.852;2023-07-02T10:04:41;11.88;;;3.22;;
70838;SDS011;58464;52.298;4.852;2023-07-02T10:07:07;8.98;;;2.78;;
70838;SDS011;58464;52.298;4.852;2023-07-02T10:12:00;5.70;;;2.85;;
70838;SDS011;58464;52.298;4.852;2023-07-02T10:14:25;11.80;;;3.20;;
70838;SDS011;58464;52.298;4.852;2023-07-02T10:16:54;12.98;;;2.75;;
70838;SDS011;58464;52.298;4.852;2023-07-02T10:19:20;13.18;;;3.25;;
70838;SDS011;58464;52.298;4.852;2023-07-02T10:21:46;10.85;;;3.17;;
70838;SDS011;58464;52.298;4.852;2023-07-02T10:24:12;10.77;;;3.42;;
70838;SDS011;58464;52.298;4.852;2023-07-02T10:26:37;10.75;;;3.53;;
70838;SDS011;58464;52.298;4.852;2023-07-02T10:29:02;9.93;;;3.20;;
70838;SDS011;58464;52.298;4.852;2023-07-02T10:31:27;10.90;;;3.23;;
70838;SDS011;58464;52.298;4.852;2023-07-02T10:33:53;17.33;;;4.95;;
70838;SDS011;58464;52.298;4.852;2023-07-02T10:36:19;13.50;;;3.47;;
70838;SDS011;58464;52.298;4.852;2023-07-02T10:38:45;10.32;;;3.25;;
70838;SDS011;58464;52.298;4.852;2023-07-02T10:41:11;11.43;;;3.67;;
70838;SDS011;58464;52.298;4.852;2023-07-02T10:43:36;20.10;;;4.60;;
70838;SDS011;58464;52.298;4.852;2023-07-02T10:46:01;15.98;;;4.13;;
70838;SDS011;58464;52.298;4.852;2023-07-02T10:48:30;8.23;;;3.55;;
70838;SDS011;58464;52.298;4.852;2023-07-02T10:50:55;15.30;;;4.60;;
70838;SDS011;58464;52.298;4.852;2023-07-02T10:53:21;17.52;;;3.58;;
70838;SDS011;58464;52.298;4.852;2023-07-02T10:55:54;8.27;;;3.08;;
70838;SDS011;58464;52.298;4.852;2023-07-02T10:58:25;8.32;;;2.92;;
70838;SDS011;58464;52.298;4.852;2023-07-02T11:00:51;17.77;;;5.07;;
70838;SDS011;58464;52.298;4.852;2023-07-02T11:03:20;8.93;;;3.63;;
70838;SDS011;58464;52.298;4.852;2023-07-02T11:05:46;10.45;;;3.40;;
70838;SDS011;58464;52.298;4.852;2023-07-02T11:08:11;9.45;;;3.30;;
70838;SDS011;58464;52.298;4.852;2023-07-02T11:10:36;10.13;;;3.33;;
70838;SDS011;58464;52.298;4.852;2023-07-02T11:13:10;6.40;;;2.95;;
70838;SDS011;58464;52.298;4.852;2023-07-02T11:15:35;10.25;;;3.00;;
70838;SDS011;58464;52.298;4.852;2023-07-02T11:18:08;9.90;;;3.55;;
70838;SDS011;58464;52.298;4.852;2023-07-02T11:20:33;6.32;;;2.85;;
70838;SDS011;58464;52.298;4.852;2023-07-02T11:23:00;12.63;;;4.07;;
70838;SDS011;58464;52.298;4.852;2023-07-02T11:25:26;7.10;;;3.05;;
70838;SDS011;58464;52.298;4.852;2023-07-02T11:28:14;16.55;;;4.53;;
70838;SDS011;58464;52.298;4.852;2023-07-02T11:30:47;8.30;;;3.10;;
70838;SDS011;58464;52.298;4.852;2023-07-02T11:33:12;11.93;;;3.13;;
70838;SDS011;58464;52.298;4.852;2023-07-02T11:35:39;10.52;;;3.33;;
70838;SDS011;58464;52.298;4.852;2023-07-02T11:38:04;10.10;;;3.10;;
70838;SDS011;58464;52.298;4.852;2023-07-02T11:40:30;14.10;;;3.58;;
70838;SDS011;58464;52.298;4.852;2023-07-02T11:42:55;10.98;;;4.05;;
70838;SDS011;58464;52.298;4.852;2023-07-02T11:45:20;8.60;;;2.77;;
70838;SDS011;58464;52.298;4.852;2023-07-02T11:47:47;9.50;;;2.87;;
70838;SDS011;58464;52.298;4.852;2023-07-02T11:50:13;9.63;;;3.30;;
70838;SDS011;58464;52.298;4.852;2023-07-02T11:52:38;12.97;;;3.47;;
70838;SDS011;58464;52.298;4.852;2023-07-02T11:55:03;15.27;;;5.18;;
70838;SDS011;58464;52.298;4.852;2023-07-02T11:57:29;10.82;;;3.80;;
70838;SDS011;58464;52.298;4.852;2023-07-02T11:59:54;11.87;;;4.23;;
70838;SDS011;58464;52.298;4.852;2023-07-02T12:02:20;11.80;;;4.23;;
70838;SDS011;58464;52.298;4.852;2023-07-02T12:04:45;12.07;;;3.55;;
70838;SDS011;58464;52.298;4.852;2023-07-02T12:07:10;8.27;;;3.15;;
70838;SDS011;58464;52.298;4.852;2023-07-02T12:09:38;6.68;;;2.78;;
70838;SDS011;58464;52.298;4.852;2023-07-02T12:12:03;9.00;;;2.40;;
70838;SDS011;58464;52.298;4.852;2023-07-02T12:14:29;6.03;;;3.00;;
70838;SDS011;58464;52.298;4.852;2023-07-02T12:16:54;8.95;;;3.10;;
70838;SDS011;58464;52.298;4.852;2023-07-02T12:19:19;9.27;;;3.23;;
70838;SDS011;58464;52.298;4.852;2023-07-02T12:21:44;7.55;;;3.13;;
70838;SDS011;58464;52.298;4.852;2023-07-02T12:24:10;9.10;;;2.63;;
70838;SDS011;58464;52.298;4.852;2023-07-02T12:26:36;7.28;;;2.85;;
70838;SDS011;58464;52.298;4.852;2023-07-02T12:29:01;13.02;;;3.95;;
70838;SDS011;58464;52.298;4.852;2023-07-02T12:31:27;10.55;;;3.25;;
70838;SDS011;58464;52.298;4.852;2023-07-02T12:33:52;14.82;;;4.55;;
70838;SDS011;58464;52.298;4.852;2023-07-02T12:36:17;9.40;;;3.33;;
70838;SDS011;58464;52.298;4.852;2023-07-02T12:38:43;13.07;;;4.82;;
70838;SDS011;58464;52.298;4.852;2023-07-02T12:41:08;14.43;;;4.60;;
70838;SDS011;58464;52.298;4.852;2023-07-02T12:43:33;7.97;;;3.30;;
70838;SDS011;58464;52.298;4.852;2023-07-02T12:45:59;9.10;;;3.17;;
70838;SDS011;58464;52.298;4.852;2023-07-02T12:48:25;12.75;;;4.57;;
70838;SDS011;58464;52.298;4.852;2023-07-02T12:50:54;11.70;;;3.80;;
70838;SDS011;58464;52.298;4.852;2023-07-02T12:53:20;10.00;;;3.25;;
70838;SDS011;58464;52.298;4.852;2023-07-02T12:55:45;13.00;;;4.07;;
70838;SDS011;58464;52.298;4.852;2023-07-02T12:58:10;9.17;;;4.13;;
70838;SDS011;58464;52.298;4.852;2023-07-02T13:00:36;13.90;;;3.78;;
70838;SDS011;58464;52.298;4.852;2023-07-02T13:03:02;11.50;;;4.00;;
70838;SDS011;58464;52.298;4.852;2023-07-02T13:05:27;16.45;;;3.75;;
70838;SDS011;58464;52.298;4.852;2023-07-02T13:07:54;16.02;;;4.60;;
70838;SDS011;58464;52.298;4.852;2023-07-02T13:10:19;9.80;;;3.80;;
70838;SDS011;58464;52.298;4.852;2023-07-02T13:12:44;12.80;;;4.80;;
70838;SDS011;58464;52.298;4.852;2023-07-02T13:15:09;11.70;;;4.23;;
70838;SDS011;58464;52.298;4.852;2023-07-02T13:17:36;14.70;;;4.65;;
70838;SDS011;58464;52.298;4.852;2023-07-02T13:20:01;18.20;;;5.53;;
70838;SDS011;58464;52.298;4.852;2023-07-02T13:22:27;13.68;;;3.83;;
70838;SDS011;58464;52.298;4.852;2023-07-02T13:24:53;9.98;;;3.38;;
70838;SDS011;58464;52.298;4.852;2023-07-02T13:27:18;8.98;;;3.90;;
70838;SDS011;58464;52.298;4.852;2023-07-02T13:29:45;9.60;;;3.67;;
70838;SDS011;58464;52.298;4.852;2023-07-02T13:32:10;10.18;;;3.85;;
70838;SDS011;58464;52.298;4.852;2023-07-02T13:34:36;15.10;;;4.38;;
70838;SDS011;58464;52.298;4.852;2023-07-02T13:37:01;13.05;;;4.32;;
70838;SDS011;58464;52.298;4.852;2023-07-02T13:39:28;12.02;;;3.45;;
70838;SDS011;58464;52.298;4.852;2023-07-02T13:41:53;12.25;;;3.35;;
70838;SDS011;58464;52.298;4.852;2023-07-02T13:44:18;11.10;;;4.43;;
70838;SDS011;58464;52.298;4.852;2023-07-02T13:46:44;16.63;;;4.23;;
70838;SDS011;58464;52.298;4.852;2023-07-02T13:49:09;9.52;;;4.38;;
70838;SDS011;58464;52.298;4.852;2023-07-02T13:51:35;10.30;;;4.32;;
70838;SDS011;58464;52.298;4.852;2023-07-02T13:54:00;8.63;;;3.97;;
70838;SDS011;58464;52.298;4.852;2023-07-02T13:56:26;12.87;;;3.50;;
70838;SDS011;58464;52.298;4.852;2023-07-02T14:01:23;11.20;;;3.15;;
70838;SDS011;58464;52.298;4.852;2023-07-02T14:03:48;12.98;;;3.97;;
70838;SDS011;58464;52.298;4.852;2023-07-02T14:06:14;13.57;;;3.73;;
70838;SDS011;58464;52.298;4.852;2023-07-02T14:08:41;7.55;;;3.33;;
70838;SDS011;58464;52.298;4.852;2023-07-02T14:11:06;7.03;;;3.13;;
70838;SDS011;58464;52.298;4.852;2023-07-02T14:13:32;9.52;;;4.25;;
70838;SDS011;58464;52.298;4.852;2023-07-02T14:15:58;9.52;;;3.30;;
70838;SDS011;58464;52.298;4.852;2023-07-02T14:18:23;9.93;;;4.47;;
70838;SDS011;58464;52.298;4.852;2023-07-02T14:20:49;8.67;;;2.60;;
70838;SDS011;58464;52.298;4.852;2023-07-02T14:23:14;9.80;;;3.20;;
70838;SDS011;58464;52.298;4.852;2023-07-02T14:25:39;12.82;;;4.82;;
70838;SDS011;58464;52.298;4.852;2023-07-02T14:28:05;14.35;;;4.30;;
70838;SDS011;58464;52.298;4.852;2023-07-02T14:30:30;14.00;;;3.88;;
70838;SDS011;58464;52.298;4.852;2023-07-02T14:32:55;11.55;;;4.25;;
70838;SDS011;58464;52.298;4.852;2023-07-02T14:35:21;15.57;;;5.60;;
70838;SDS011;58464;52.298;4.852;2023-07-02T14:37:50;14.88;;;4.85;;